Time;durP1;ratioP1;P1;durP2;ratioP2;P2;SDS_P1;SDS_P2;PMS_P1;PMS_P2;Temp;Humidity;BMP_temperature;BMP_pressure;BME280_temperature;BME280_humidity;BME280_pressure;Samples;Min_cycle;Max_cycle;Signal;HPM_P1;HPM_P2
2022/10/04 00:03:29;;;;;;;3.85;2.53;;;;;;;11.43;61.56;100158.63;7573449;33;39619;-74
2022/10/04 00:07:50;;;;;;;9.20;2.80;;;;;;;11.76;60.39;100164.69;7580237;33;38729;-74
2022/10/04 00:12:06;;;;;;;7.12;2.70;;;;;;;11.56;61.30;100169.03;7567156;32;37526;-74
2022/10/04 00:16:31;;;;;;;8.80;2.85;;;;;;;11.74;60.61;100164.16;7565300;33;40207;-74
2022/10/04 00:20:51;;;;;;;5.47;2.17;;;;;;;11.69;60.71;100164.97;7579727;32;39485;-73
2022/10/04 00:25:12;;;;;;;6.05;2.53;;;;;;;11.62;60.88;100167.13;7579658;33;37635;-74
2022/10/04 00:29:37;;;;;;;9.40;2.50;;;;;;;11.87;59.98;100162.84;7572550;33;37911;-74
2022/10/04 00:33:56;;;;;;;8.48;3.10;;;;;;;11.75;60.51;100155.69;7554356;33;39309;-74
2022/10/04 00:38:25;;;;;;;5.18;2.50;;;;;;;11.95;59.80;100152.22;7554102;33;40555;-73
2022/10/04 00:42:51;;;;;;;6.65;2.50;;;;;;;11.88;60.26;100143.41;7527362;33;38769;-73
2022/10/04 00:47:22;;;;;;;13.40;2.80;;;;;;;11.85;60.43;100141.25;7544006;33;37493;-74
2022/10/04 00:51:54;;;;;;;8.13;2.70;;;;;;;11.99;60.37;100141.56;7554044;33;39411;-74
2022/10/04 00:56:18;;;;;;;7.55;2.47;;;;;;;12.05;60.39;100132.25;7561436;33;39977;-74
2022/10/04 01:00:35;;;;;;;5.37;2.58;;;;;;;11.93;60.90;100137.97;7589814;32;38844;-72
2022/10/04 01:04:54;;;;;;;7.28;2.58;;;;;;;11.99;60.93;100127.91;7579240;33;37961;-73
2022/10/04 01:09:11;;;;;;;8.90;3.30;;;;;;;11.90;61.35;100135.78;7578681;33;39782;-74
2022/10/04 01:13:41;;;;;;;5.05;2.45;;;;;;;11.92;61.58;100127.34;7578107;33;39918;-74
2022/10/04 01:18:11;;;;;;;5.28;2.70;;;;;;;12.23;60.71;100119.97;7552386;33;38010;-73
2022/10/04 01:22:33;;;;;;;7.82;2.90;;;;;;;12.18;60.91;100109.84;7553515;33;38399;-74
2022/10/04 01:26:49;;;;;;;7.12;2.65;;;;;;;12.14;61.36;100116.97;7553333;33;40143;-73
2022/10/04 01:31:05;;;;;;;5.10;2.50;;;;;;;12.06;61.88;100111.22;7553240;33;39946;-74
2022/10/04 01:35:22;;;;;;;6.45;2.40;;;;;;;11.98;62.54;100099.72;7553722;33;38502;-73
2022/10/04 01:39:38;;;;;;;5.50;2.75;;;;;;;12.37;60.98;100101.91;7540227;33;37330;-74
2022/10/04 01:43:57;;;;;;;6.72;2.78;;;;;;;12.46;60.56;100104.06;7527454;33;38985;-75
2022/10/04 01:48:22;;;;;;;8.55;2.72;;;;;;;12.35;60.97;100093.16;7538003;33;40917;-74
2022/10/04 01:52:48;;;;;;;6.32;2.50;;;;;;;12.38;60.95;100087.13;7566419;32;37766;-74
2022/10/04 01:57:06;;;;;;;5.35;2.60;;;;;;;12.37;60.94;100106.56;7552674;33;37127;-73
2022/10/04 02:01:30;;;;;;;6.65;2.33;;;;;;;11.87;62.86;100109.00;7560657;33;39360;-73
2022/10/04 02:05:52;;;;;;;7.78;2.70;;;;;;;12.05;62.21;100099.47;7588421;32;39916;-73
2022/10/04 02:10:17;;;;;;;8.43;3.00;;;;;;;11.49;64.03;100108.41;7587673;32;37670;-73
2022/10/04 02:14:33;;;;;;;6.53;2.67;;;;;;;11.86;63.30;100096.44;7551033;33;37356;-73
2022/10/04 02:18:50;;;;;;;5.05;2.72;;;;;;;11.72;63.83;100098.88;7553053;33;40137;-73
2022/10/04 02:23:07;;;;;;;5.53;2.80;;;;;;;11.81;63.42;100099.16;7572738;32;40079;-74
2022/10/04 02:27:28;;;;;;;8.20;3.22;;;;;;;11.83;63.44;100102.44;7554500;33;38756;-74
2022/10/04 02:36:23;;;;;;;5.78;2.80;;;;;;;11.67;64.03;100087.13;7578923;32;39293;-73
2022/10/04 02:40:54;;;;;;;5.07;2.83;;;;;;;11.55;64.34;100101.84;7555369;33;39969;-73
2022/10/04 02:45:25;;;;;;;4.95;2.83;;;;;;;11.56;64.14;100102.69;7554308;33;37898;-73
2022/10/04 02:49:51;;;;;;;7.10;2.85;;;;;;;11.71;63.48;100110.06;7563243;33;37644;-73
2022/10/04 02:54:52;;;;;;;3.45;2.17;;;;;;;11.69;63.37;100095.88;7555325;33;40221;-73
2022/10/04 02:59:15;;;;;;;7.90;2.83;;;;;;;11.78;63.12;100091.50;7577523;33;40619;-72
2022/10/04 03:03:38;;;;;;;7.85;2.87;;;;;;;11.52;63.79;100096.12;7554868;33;37901;-74
2022/10/04 03:07:55;;;;;;;6.33;3.27;;;;;;;11.63;63.87;100104.06;7574277;33;36948;-74
2022/10/04 03:12:11;;;;;;;5.55;2.70;;;;;;;11.64;64.18;100100.25;7580464;33;39242;-74
2022/10/04 03:16:37;;;;;;;7.12;2.60;;;;;;;11.67;64.08;100098.88;7581160;32;41441;-76
2022/10/04 03:20:53;;;;;;;6.82;3.03;;;;;;;11.61;63.97;100106.25;7553733;33;38690;-75
2022/10/04 03:25:16;;;;;;;11.18;2.90;;;;;;;11.50;64.23;100098.31;7557074;33;37839;-75
2022/10/04 03:29:33;;;;;;;5.10;2.65;;;;;;;11.44;64.60;100090.09;7590949;32;40007;-76
2022/10/04 03:33:49;;;;;;;7.47;3.10;;;;;;;11.52;64.23;100088.78;7590838;32;40872;-75
2022/10/04 03:38:07;;;;;;;6.90;2.70;;;;;;;11.22;65.17;100087.59;7560094;33;38678;-76
2022/10/04 03:42:27;;;;;;;5.87;2.90;;;;;;;11.28;64.86;100093.91;7578042;32;37202;-75
2022/10/04 03:46:44;;;;;;;8.32;2.90;;;;;;;11.12;65.36;100086.75;7580646;33;40053;-75
2022/10/04 03:51:02;;;;;;;7.25;3.03;;;;;;;11.50;64.24;100101.84;7580532;33;40779;-76
2022/10/04 03:55:18;;;;;;;3.65;2.78;;;;;;;11.55;64.10;100096.41;7580456;33;37606;-76
2022/10/04 03:59:35;;;;;;;7.07;2.97;;;;;;;11.52;63.93;100102.41;7580551;33;37925;-75
2022/10/04 04:04:10;;;;;;;12.35;2.70;;;;;;;11.74;63.54;100093.16;7580512;33;39454;-75
2022/10/04 04:08:35;;;;;;;9.20;2.95;;;;;;;11.40;64.60;100093.63;7590351;32;40693;-74
2022/10/04 04:13:14;;;;;;;7.65;3.25;;;;;;;11.48;64.60;100100.50;7580281;33;38740;-75
2022/10/04 04:17:36;;;;;;;12.45;3.08;;;;;;;11.40;65.01;100099.94;7589852;32;37882;-75
2022/10/04 04:21:54;;;;;;;4.93;2.70;;;;;;;11.45;64.97;100108.13;7580052;33;39038;-76
2022/10/04 04:26:16;;;;;;;5.68;2.67;;;;;;;11.89;63.68;100103.28;7591053;32;42301;-75
2022/10/04 04:30:32;;;;;;;5.85;2.95;;;;;;;11.73;64.43;100097.78;7580155;33;37618;-75
2022/10/04 04:34:52;;;;;;;6.85;2.95;;;;;;;11.64;64.48;100100.25;7591024;32;37126;-75
2022/10/04 04:39:38;;;;;;;9.18;3.35;;;;;;;11.54;65.09;100108.44;7573248;33;222232;-75
2022/10/04 04:43:54;;;;;;;7.78;2.80;;;;;;;11.78;64.17;100105.16;7587996;32;40910;-76
2022/10/04 04:48:13;;;;;;;10.52;3.25;;;;;;;11.71;64.57;100099.16;7590775;32;37878;-75
2022/10/04 04:52:30;;;;;;;6.43;2.60;;;;;;;11.90;63.94;100103.00;7590654;32;37181;-75
2022/10/04 04:56:49;;;;;;;5.60;3.00;;;;;;;12.04;63.81;100108.78;7590580;32;39404;-75
2022/10/04 05:01:20;;;;;;;5.80;2.72;;;;;;;12.13;63.66;100119.97;7590415;32;40792;-76
2022/10/04 05:05:36;;;;;;;9.02;2.83;;;;;;;12.17;63.47;100127.31;7579500;33;37646;-76
2022/10/04 05:09:52;;;;;;;6.75;2.83;;;;;;;12.19;64.89;100129.78;7579467;33;38086;-76
2022/10/04 05:14:11;;;;;;;3.92;2.55;;;;;;;12.66;63.98;100125.91;7579302;33;40165;-75
2022/10/04 05:18:32;;;;;;;4.95;2.40;;;;;;;12.43;63.74;100137.44;7589955;32;38878;-74
2022/10/04 05:22:49;;;;;;;9.95;3.20;;;;;;;12.81;66.16;100130.50;7579230;33;38579;-74
2022/10/04 05:27:18;;;;;;;6.10;2.40;;;;;;;12.75;63.69;100137.09;7590091;32;36996;-75
2022/10/04 05:31:54;;;;;;;7.32;2.62;;;;;;;12.71;62.96;100145.03;7589468;32;39524;-74
2022/10/04 05:36:12;;;;;;;4.50;2.60;;;;;;;12.74;62.86;100138.19;7578846;33;40105;-74
2022/10/04 05:41:00;;;;;;;7.25;2.83;;;;;;;12.61;63.65;100142.31;7578645;33;38754;-74
2022/10/04 05:45:22;;;;;;;4.90;2.42;;;;;;;12.82;62.50;100145.03;7588379;32;37605;-78
2022/10/04 05:49:43;;;;;;;4.15;2.37;;;;;;;12.95;61.73;100144.41;7578655;33;39946;-76
2022/10/04 05:54:02;;;;;;;5.00;2.37;;;;;;;12.76;62.37;100152.41;7578727;33;40821;-76
2022/10/04 05:58:37;;;;;;;5.78;2.50;;;;;;;12.66;62.96;100152.41;7592490;32;37891;-75
2022/10/04 06:03:13;;;;;;;7.22;3.72;;;;;;;12.40;63.90;100166.16;7581900;33;37141;-74
2022/10/04 06:07:44;;;;;;;7.15;2.45;;;;;;;12.43;64.64;100178.44;7581841;33;39425;-74
2022/10/04 06:12:18;;;;;;;6.05;2.83;;;;;;;12.09;65.56;100187.19;7592195;32;39596;-75
2022/10/04 06:16:53;;;;;;;5.05;2.37;;;;;;;11.83;67.00;100182.50;7581607;33;38104;-74
2022/10/04 06:21:18;;;;;;;4.65;2.60;;;;;;;12.39;64.74;100186.37;7581229;33;37896;-75
2022/10/04 06:25:58;;;;;;;6.60;2.70;;;;;;;11.42;67.28;100197.94;7581362;33;40156;-74
2022/10/04 06:30:17;;;;;;;5.55;2.62;;;;;;;12.20;65.59;100197.03;7590281;32;40799;-74
2022/10/04 06:35:10;;;;;;;5.53;2.78;;;;;;;12.33;65.51;100201.97;7592109;32;37907;-73
2022/10/04 06:39:41;;;;;;;3.95;2.08;;;;;;;12.51;65.64;100197.03;7581360;33;37717;-74
2022/10/04 06:44:21;;;;;;;3.40;2.30;;;;;;;12.40;65.86;100199.78;7581413;33;39405;-73
2022/10/04 06:48:46;;;;;;;5.62;2.60;;;;;;;12.66;65.37;100205.22;7581315;33;40781;-73
2022/10/04 06:53:17;;;;;;;6.78;2.15;;;;;;;12.89;64.83;100211.22;7581220;33;38059;-74
2022/10/04 06:57:44;;;;;;;8.77;2.78;;;;;;;12.98;64.66;100215.00;7581198;33;37194;-74
2022/10/04 07:02:11;;;;;;;3.03;2.00;;;;;;;13.12;64.70;100212.50;7581218;33;39284;-76
2022/10/04 07:06:32;;;;;;;8.07;2.65;;;;;;;13.35;64.47;100213.84;7580324;33;40610;-75
2022/10/04 07:10:54;;;;;;;5.55;2.50;;;;;;;13.50;63.96;100226.63;7580891;33;38813;-74
2022/10/04 07:15:21;;;;;;;6.03;2.70;;;;;;;13.22;64.65;100214.41;7591624;32;37108;-75
2022/10/04 07:19:44;;;;;;;6.40;2.45;;;;;;;13.27;65.46;100223.41;7591277;32;40259;-75
2022/10/04 07:24:02;;;;;;;5.15;2.42;;;;;;;13.57;65.04;100229.06;7580901;33;40845;-74
2022/10/04 07:32:59;;;;;;;7.68;2.20;;;;;;;14.85;61.27;100228.19;7589588;32;37005;-74
2022/10/04 07:37:16;;;;;;;3.85;2.30;;;;;;;14.47;61.69;100236.19;7591669;32;40232;-75
2022/10/04 07:41:36;;;;;;;6.53;2.22;;;;;;;14.32;61.86;100230.81;7580547;33;40903;-75
2022/10/04 07:46:01;;;;;;;3.72;1.85;;;;;;;14.39;61.80;100250.50;7591495;32;37692;-75
2022/10/04 07:50:35;;;;;;;3.67;2.00;;;;;;;14.67;61.07;100245.38;7580611;33;37821;-75
2022/10/04 07:54:56;;;;;;;5.80;2.00;;;;;;;14.61;61.80;100248.16;7580736;33;39490;-75
2022/10/04 07:59:25;;;;;;;6.53;2.22;;;;;;;14.91;60.70;100249.00;7591330;32;39651;-74
2022/10/04 08:04:18;;;;;;;5.45;2.10;;;;;;;14.98;60.54;100260.44;7571718;33;38274;-74
2022/10/04 08:08:57;;;;;;;3.97;2.03;;;;;;;14.88;60.63;100266.03;7559096;33;37111;-74
2022/10/04 08:13:21;;;;;;;4.65;1.80;;;;;;;14.66;61.47;100258.28;7552293;33;39361;-74
2022/10/04 08:17:44;;;;;;;3.12;2.03;;;;;;;15.32;59.93;100258.72;7556687;33;40108;-75
2022/10/04 08:22:24;;;;;;;2.33;1.73;;;;;;;15.27;59.60;100256.84;7560587;32;38465;-77
2022/10/04 08:27:05;;;;;;;7.45;2.62;;;;;;;15.15;59.00;100264.69;7550750;33;36920;-76
2022/10/04 08:31:33;;;;;;;5.15;2.37;;;;;;;15.16;60.11;100263.56;7547278;33;39303;-78
2022/10/04 08:36:00;;;;;;;2.42;1.85;;;;;;;15.09;60.99;100257.59;7570817;32;40884;-77
2022/10/04 08:40:32;;;;;;;5.30;1.98;;;;;;;15.24;58.60;100251.94;7566527;32;37986;-77
2022/10/04 08:45:45;;;;;;;5.05;1.90;;;;;;;15.35;58.44;100256.22;7565478;32;36786;-76
2022/10/04 08:50:31;;;;;;;7.23;2.10;;;;;;;16.06;56.68;100253.69;7462807;33;40128;-77
2022/10/04 08:55:19;;;;;;;6.35;2.30;;;;;;;16.23;56.47;100246.81;7555179;32;40200;-76
2022/10/04 09:00:04;;;;;;;8.55;2.10;;;;;;;15.94;55.16;100259.62;7579478;33;38115;-74
2022/10/04 09:04:21;;;;;;;3.22;1.80;;;;;;;16.70;54.46;100261.50;7578404;33;37132;-73
2022/10/04 09:08:43;;;;;;;7.18;2.22;;;;;;;16.70;53.66;100264.25;7565167;33;39365;-76
2022/10/04 09:13:25;;;;;;;3.67;1.83;;;;;;;15.66;54.55;100269.59;7553739;33;39870;-74
2022/10/04 09:17:50;;;;;;;3.35;1.98;;;;;;;16.57;53.79;100252.06;7556388;33;38201;-75
2022/10/04 09:22:12;;;;;;;4.62;1.52;;;;;;;16.81;51.88;100257.44;7549466;33;37179;-74
2022/10/04 09:26:50;;;;;;;2.20;1.42;;;;;;;16.02;53.46;100254.56;7553478;33;40017;-74
2022/10/04 09:31:28;;;;;;;4.30;1.70;;;;;;;15.81;53.59;100273.28;7557687;33;40087;-75
2022/10/04 09:36:03;;;;;;;9.73;1.77;;;;;;;15.62;54.00;100275.97;7561658;33;38073;-74
2022/10/04 09:40:37;;;;;;;2.10;1.42;;;;;;;15.90;54.64;100277.84;7561652;33;37324;-75
2022/10/04 09:45:09;;;;;;;6.85;1.70;;;;;;;15.88;54.19;100279.22;7561476;33;39377;-75
2022/10/04 09:49:46;;;;;;;5.07;1.30;;;;;;;15.79;54.56;100284.56;7558841;33;39797;-74
2022/10/04 09:54:27;;;;;;;4.10;1.40;;;;;;;16.11;54.13;100286.62;7557974;33;38706;-75
2022/10/04 09:58:52;;;;;;;9.00;1.62;;;;;;;16.61;52.02;100282.56;7558003;33;36610;-74
2022/10/04 10:03:40;;;;;;;4.20;1.40;;;;;;;16.22;51.00;100286.47;7558133;33;39082;-75
2022/10/04 10:08:32;;;;;;;3.28;1.20;;;;;;;16.70;49.08;100283.53;7561009;33;39994;-75
2022/10/04 10:17:56;;;;;;;3.53;1.30;;;;;;;17.34;47.83;100278.25;7560843;33;38171;-75
2022/10/04 10:22:56;;;;;;;2.83;1.60;;;;;;;18.41;44.61;100268.03;7559625;33;40134;-75
2022/10/04 10:27:23;;;;;;;4.57;1.40;;;;;;;17.69;44.88;100277.84;7559565;33;39925;-75
2022/10/04 10:32:08;;;;;;;5.15;1.40;;;;;;;17.69;45.25;100272.34;7559294;33;38525;-75
2022/10/04 10:36:52;;;;;;;1.92;1.25;;;;;;;18.00;44.52;100276.09;7560444;33;37145;-75
2022/10/04 10:41:27;;;;;;;;;;;;;;;17.94;44.99;100271.81;7558167;33;39275;-75
2022/10/04 10:45:55;;;;;;;3.35;1.30;;;;;;;19.53;42.92;100272.56;7555808;33;40207;-75
2022/10/04 10:50:33;;;;;;;2.83;1.12;;;;;;;19.40;41.83;100279.81;7555254;33;38045;-75
2022/10/04 10:55:06;;;;;;;2.17;1.20;;;;;;;19.21;42.64;100277.31;7554452;33;37818;-75
2022/10/04 10:59:35;;;;;;;3.87;0.98;;;;;;;20.19;40.93;100267.00;7554514;33;40105;-75
2022/10/04 11:04:13;;;;;;;4.78;1.30;;;;;;;20.92;38.52;100266.34;7555441;33;41163;-75
2022/10/04 11:08:50;;;;;;;1.80;1.00;;;;;;;20.69;37.91;100262.94;7555219;33;38132;-75
2022/10/04 11:13:29;;;;;;;4.82;1.08;;;;;;;21.11;37.92;100270.66;7555385;33;37926;-75
2022/10/04 11:18:22;;;;;;;2.50;1.00;;;;;;;20.36;38.25;100277.28;7555355;33;39299;-75
2022/10/04 11:22:59;;;;;;;;;;;;;;;19.50;39.82;100279.53;7554526;33;40795;-75
2022/10/04 11:27:17;;;;;;;2.80;1.10;;;;;;;19.73;40.82;100285.00;7555331;33;38256;-75
2022/10/04 11:32:00;;;;;;;5.65;1.70;;;;;;;19.60;41.49;100291.47;7555066;33;37863;-75
2022/10/04 11:36:39;;;;;;;3.95;1.27;;;;;;;18.42;44.24;100294.47;7555209;33;39626;-77
2022/10/04 11:41:11;;;;;;;5.28;1.40;;;;;;;18.83;44.69;100302.59;7553900;33;40767;-75
2022/10/04 11:45:54;;;;;;;3.47;1.43;;;;;;;19.32;42.80;100302.75;7554972;33;38913;-75
2022/10/04 11:50:22;;;;;;;2.12;1.20;;;;;;;18.79;43.18;100309.06;7555020;33;37886;-75
2022/10/04 11:55:09;;;;;;;3.22;1.20;;;;;;;18.32;43.76;100315.69;7554557;33;39445;-75
2022/10/04 11:59:46;;;;;;;2.28;1.33;;;;;;;18.48;44.23;100320.84;7554785;33;40460;-75
2022/10/04 12:04:52;;;;;;;1.25;1.10;;;;;;;17.80;47.22;100320.66;7554826;33;38054;-75
2022/10/04 12:09:30;;;;;;;1.95;1.10;;;;;;;17.92;46.40;100311.84;7531894;33;37770;-74
2022/10/04 12:14:09;;;;;;;3.92;1.10;;;;;;;17.85;47.62;100315.03;7554669;33;40138;-75
2022/10/04 12:19:07;;;;;;;2.87;1.23;;;;;;;17.84;46.18;100310.63;7554512;33;39794;-73
2022/10/04 12:23:38;;;;;;;2.92;1.50;;;;;;;18.10;46.93;100310.12;7554609;33;38670;-75
2022/10/04 12:28:29;;;;;;;2.95;2.37;;;;;;;18.03;46.44;100305.00;7554256;33;36709;-75
2022/10/04 12:33:23;;;;;;;2.20;1.12;;;;;;;18.80;44.20;100299.62;7554589;33;39139;-75
2022/10/04 12:37:49;;;;;;;2.15;1.00;;;;;;;18.90;45.42;100293.88;7554475;33;39772;-76
2022/10/04 12:42:14;;;;;;;2.00;1.08;;;;;;;17.63;43.96;100291.75;7554630;33;36347;-75
2022/10/04 12:47:17;;;;;;;2.50;1.10;;;;;;;17.85;43.23;100301.25;7553216;33;37400;-76
2022/10/04 12:52:01;;;;;;;1.15;1.00;;;;;;;17.63;44.85;100308.28;7543540;33;40109;-75
2022/10/04 12:56:32;;;;;;;3.62;1.23;;;;;;;17.91;43.41;100297.25;7554112;33;40743;-75
2022/10/04 13:00:51;;;;;;;1.70;1.30;;;;;;;19.02;41.69;100299.62;7554055;33;38084;-76
2022/10/04 13:05:22;;;;;;;1.12;0.80;;;;;;;19.20;40.72;100297.81;7552029;33;38011;-76
2022/10/04 13:10:11;;;;;;;2.25;0.77;;;;;;;20.24;40.18;100286.22;7553666;33;39278;-75
2022/10/04 13:15:08;;;;;;;2.97;0.93;;;;;;;20.31;37.19;100284.94;7553015;33;40935;-76
2022/10/04 13:19:27;;;;;;;1.48;0.93;;;;;;;20.66;36.99;100284.94;7552428;33;38238;-76
2022/10/04 13:24:02;;;;;;;1.48;0.98;;;;;;;20.51;37.47;100292.59;7553636;33;37123;-75
2022/10/04 13:28:23;;;;;;;1.67;0.93;;;;;;;21.13;37.00;100287.81;7553907;33;37513;-75
2022/10/04 13:32:52;;;;;;;4.55;1.12;;;;;;;21.53;35.05;100276.41;7552278;33;40137;-74
2022/10/04 13:37:17;;;;;;;2.33;0.93;;;;;;;21.22;34.96;100285.81;7552181;33;38787;-76
2022/10/04 13:41:49;;;;;;;3.65;0.90;;;;;;;21.29;35.76;100294.41;7553643;33;37003;-77
2022/10/04 13:46:24;;;;;;;2.03;1.10;;;;;;;22.22;35.86;100288.22;7551987;33;40550;-75
2022/10/04 13:50:52;;;;;;;1.75;0.88;;;;;;;22.63;34.43;100292.97;7548631;33;40876;-76
2022/10/04 14:00:14;;;;;;;3.17;1.33;;;;;;;22.46;33.20;100304.25;7552154;33;37678;-75
2022/10/04 14:04:35;;;;;;;2.30;0.80;;;;;;;20.99;34.94;100308.22;7551438;33;37425;-75
2022/10/04 14:09:12;;;;;;;2.00;1.08;;;;;;;19.91;38.14;100323.81;7552472;33;39902;-75
2022/10/04 14:13:44;;;;;;;2.25;1.12;;;;;;;19.47;37.88;100323.59;7551458;33;37982;-75
2022/10/04 14:18:44;;;;;;;1.90;1.10;;;;;;;20.06;37.50;100317.81;7555250;33;37021;-75
2022/10/04 14:23:13;;;;;;;1.15;1.02;;;;;;;20.06;37.20;100317.81;7555369;33;39076;-75
2022/10/04 14:28:13;;;;;;;2.50;0.93;;;;;;;20.67;37.03;100317.88;7554360;33;40790;-75
2022/10/04 14:32:53;;;;;;;2.53;1.10;;;;;;;20.14;36.65;100324.50;7555186;33;38009;-76
2022/10/04 14:37:39;;;;;;;0.95;0.75;;;;;;;21.06;36.82;100315.19;7555583;33;37080;-75
2022/10/04 14:42:13;;;;;;;3.92;0.90;;;;;;;20.45;36.90;100318.81;7554865;33;39529;-75
2022/10/04 14:46:45;;;;;;;2.37;1.17;;;;;;;20.83;36.29;100326.47;7555824;33;40175;-75
2022/10/04 14:51:20;;;;;;;2.65;1.30;;;;;;;20.11;36.71;100333.44;7555075;33;38054;-74
2022/10/04 14:56:05;;;;;;;2.37;1.27;;;;;;;19.46;38.18;100339.38;7555122;33;37108;-76
2022/10/04 15:00:28;;;;;;;5.95;1.70;;;;;;;19.44;39.50;100344.41;7555261;33;40091;-74
2022/10/04 15:04:47;;;;;;;;;;;;;;;19.93;38.87;100346.44;7555030;33;40155;-75
2022/10/04 15:09:29;;;;;;;5.87;2.10;;;;;;;18.79;39.74;100344.97;7555423;33;38235;-75
2022/10/04 15:13:57;;;;;;;4.62;1.62;;;;;;;18.76;40.81;100347.22;7554543;33;37094;-74
2022/10/04 15:18:37;;;;;;;3.78;1.42;;;;;;;19.32;39.69;100346.97;7554982;33;39353;-75
2022/10/04 15:23:14;;;;;;;6.50;2.67;;;;;;;19.62;39.12;100364.66;7554403;33;40785;-73
2022/10/04 15:27:40;;;;;;;5.68;2.00;;;;;;;20.05;39.16;100361.25;7553289;33;37975;-74
2022/10/04 15:32:32;;;;;;;2.92;1.70;;;;;;;20.15;39.07;100365.69;7554939;33;37689;-74
2022/10/04 15:37:13;;;;;;;2.92;1.23;;;;;;;19.44;39.45;100374.84;7552838;33;40146;-75
2022/10/04 15:41:35;;;;;;;6.10;1.62;;;;;;;19.29;41.72;100386.28;7553574;33;38758;-75
2022/10/04 15:46:25;;;;;;;4.22;1.60;;;;;;;19.48;42.98;100386.06;7554369;33;37866;-75
2022/10/04 15:51:12;;;;;;;4.97;1.70;;;;;;;19.46;41.02;100386.37;7554210;33;37352;-73
2022/10/04 15:55:57;;;;;;;4.03;1.62;;;;;;;18.73;42.67;100394.81;7554002;33;39990;-72
2022/10/04 16:00:27;;;;;;;5.37;2.25;;;;;;;18.82;43.09;100394.06;7551598;33;39892;-73
2022/10/04 16:04:59;;;;;;;6.00;1.90;;;;;;;18.19;43.47;100402.06;7554129;33;37906;-73
2022/10/04 16:09:45;;;;;;;3.47;1.80;;;;;;;18.26;43.92;100410.75;7553388;33;37015;-73
2022/10/04 16:14:18;;;;;;;3.67;1.42;;;;;;;18.01;45.16;100428.66;7551798;33;39337;-72
2022/10/04 16:19:01;;;;;;;5.07;2.10;;;;;;;17.81;45.85;100416.84;7554416;33;40827;-73
2022/10/04 16:23:42;;;;;;;5.23;1.97;;;;;;;17.32;47.20;100431.25;7503369;33;38078;-72
2022/10/04 16:28:29;;;;;;;5.40;2.30;;;;;;;17.08;47.99;100432.19;7502942;33;37744;-73
2022/10/04 16:32:55;;;;;;;4.15;1.80;;;;;;;16.75;48.76;100437.63;7505403;33;39350;-73
2022/10/04 16:37:24;;;;;;;3.05;1.67;;;;;;;16.73;49.11;100439.84;7524062;33;40816;-73
2022/10/04 16:41:53;;;;;;;4.30;1.85;;;;;;;16.27;49.83;100443.22;7501624;33;38602;-73
2022/10/04 16:46:29;;;;;;;3.72;1.70;;;;;;;16.37;49.72;100443.06;7524226;33;37218;-73
2022/10/04 16:51:03;;;;;;;3.17;2.00;;;;;;;16.00;51.11;100455.59;7502903;33;39658;-73
2022/10/04 16:55:24;;;;;;;4.00;2.40;;;;;;;15.61;51.96;100459.28;7502743;33;40006;-72
2022/10/04 16:59:45;;;;;;;11.30;4.70;;;;;;;15.63;52.24;100459.81;7503127;33;38064;-72
2022/10/04 17:04:23;;;;;;;6.15;2.28;;;;;;;15.71;51.77;100463.84;7502808;33;36821;-73
2022/10/04 17:09:23;;;;;;;13.40;6.53;;;;;;;15.66;51.89;100480.38;7502769;33;39311;-72
2022/10/04 17:14:00;;;;;;;9.13;5.37;;;;;;;15.86;51.22;100477.47;7503706;33;40998;-72
2022/10/04 17:18:43;;;;;;;6.10;3.08;;;;;;;15.61;52.47;100485.94;7502077;33;38796;-73
2022/10/04 17:23:28;;;;;;;6.55;3.03;;;;;;;15.65;52.29;100504.31;7553375;33;36920;-73
2022/10/04 17:27:51;;;;;;;7.45;3.70;;;;;;;15.43;52.58;100503.94;7552866;33;40038;-73
2022/10/04 17:32:17;;;;;;;7.25;3.45;;;;;;;15.46;52.65;100501.44;7551809;33;39753;-71
2022/10/04 17:36:48;;;;;;;10.40;5.28;;;;;;;15.12;53.98;100513.22;7552958;33;38023;-72
2022/10/04 17:41:04;;;;;;;7.10;3.55;;;;;;;15.23;53.52;100508.50;7551583;33;37824;-72
2022/10/04 17:45:39;;;;;;;10.70;3.28;;;;;;;15.24;53.49;100509.31;7553194;33;39959;-73
2022/10/04 17:55:16;;;;;;;6.37;3.20;;;;;;;15.00;54.47;100530.06;7555789;33;37950;-72
2022/10/04 17:59:45;;;;;;;8.52;3.70;;;;;;;14.86;54.87;100534.50;7554892;33;37930;-73
2022/10/04 18:04:20;;;;;;;9.73;4.40;;;;;;;15.08;53.96;100531.38;7554855;33;40239;-73
2022/10/04 18:08:45;;;;;;;8.00;3.17;;;;;;;14.95;54.24;100535.59;7556162;33;39713;-73
2022/10/04 18:13:27;;;;;;;9.30;3.87;;;;;;;14.88;54.66;100546.03;7576364;33;38060;-73
2022/10/04 18:17:50;;;;;;;9.35;3.08;;;;;;;14.43;56.04;100545.91;7560657;33;37111;-73
2022/10/04 18:22:13;;;;;;;6.20;3.10;;;;;;;14.50;55.65;100547.53;7564349;33;39979;-74
2022/10/04 18:26:32;;;;;;;7.80;3.62;;;;;;;14.32;56.28;100559.94;7581575;33;40752;-74
2022/10/04 18:30:48;;;;;;;6.65;3.15;;;;;;;14.21;56.63;100564.59;7556500;33;39339;-73
2022/10/04 18:35:48;;;;;;;11.43;3.60;;;;;;;14.19;56.68;100562.13;7556123;33;37695;-75
2022/10/04 18:40:27;;;;;;;7.53;3.53;;;;;;;14.29;56.48;100561.31;7535213;33;40102;-73
2022/10/04 18:44:56;;;;;;;6.85;3.28;;;;;;;14.04;57.12;100565.75;7570514;33;40096;-73
2022/10/04 18:49:23;;;;;;;7.90;4.10;;;;;;;14.28;56.33;100565.97;7567873;32;37983;-73
2022/10/04 18:53:44;;;;;;;11.50;5.97;;;;;;;13.88;57.55;100575.91;7577318;33;37357;-78
2022/10/04 19:03:24;;;;;;;8.65;4.97;;;;;;;13.70;58.60;100581.94;7554364;33;40011;-74
2022/10/04 19:07:52;;;;;;;11.27;5.18;;;;;;;13.80;57.71;100581.94;7576717;33;38940;-75
2022/10/04 19:12:15;;;;;;;11.35;4.78;;;;;;;13.51;58.50;100596.16;7564711;33;37701;-74
2022/10/04 19:16:53;;;;;;;9.15;5.15;;;;;;;13.52;58.31;100600.53;7565896;33;40170;-74
2022/10/04 19:21:28;;;;;;;10.80;4.87;;;;;;;13.25;59.58;100608.12;7554936;33;39960;-72
2022/10/04 19:26:18;;;;;;;12.88;5.57;;;;;;;13.32;59.39;100615.00;7579661;33;38666;-72
2022/10/04 19:30:53;;;;;;;7.25;4.47;;;;;;;13.17;59.54;100614.13;7579280;32;37192;-73
2022/10/04 19:35:17;;;;;;;9.05;4.22;;;;;;;13.42;58.38;100625.19;7580738;33;39439;-72
2022/10/04 19:39:57;;;;;;;11.48;5.43;;;;;;;12.87;59.86;100626.59;7575717;32;40814;-71
2022/10/04 19:44:44;;;;;;;11.40;5.57;;;;;;;13.36;58.93;100634.47;7567084;32;37947;-73
2022/10/04 19:49:01;;;;;;;9.98;5.30;;;;;;;12.94;60.11;100636.19;7554877;33;37090;-72
2022/10/04 19:53:29;;;;;;;10.10;4.22;;;;;;;12.77;60.40;100643.78;7566316;33;40121;-73
2022/10/04 19:58:05;;;;;;;10.25;5.10;;;;;;;12.94;59.77;100646.34;7561811;33;38693;-72
2022/10/04 20:02:21;;;;;;;10.00;4.62;;;;;;;12.87;59.88;100645.75;7568484;32;38304;-73
2022/10/04 20:06:46;;;;;;;9.68;4.85;;;;;;;12.75;60.23;100648.69;7566229;33;37309;-72
2022/10/04 20:11:36;;;;;;;9.80;4.10;;;;;;;12.96;59.23;100641.41;7569596;33;40167;-73
2022/10/04 20:15:59;;;;;;;7.35;4.40;;;;;;;12.50;60.43;100657.56;7560296;33;40577;-72
2022/10/04 20:20:38;;;;;;;8.10;3.90;;;;;;;12.47;60.78;100656.19;7567022;33;38067;-73
2022/10/04 20:24:56;;;;;;;5.12;3.20;;;;;;;12.75;59.24;100652.25;7561377;33;37255;-74
2022/10/04 20:29:38;;;;;;;5.28;3.28;;;;;;;12.74;59.17;100656.06;7565015;33;38449;-73
2022/10/04 20:33:54;;;;;;;7.95;3.65;;;;;;;12.41;60.38;100662.69;7541536;33;39749;-75
2022/10/04 20:38:14;;;;;;;6.05;3.50;;;;;;;12.40;60.09;100667.34;7577474;33;37966;-73
2022/10/04 20:43:13;;;;;;;6.72;2.90;;;;;;;12.73;59.17;100657.16;7554371;33;37903;-74
2022/10/04 20:47:51;;;;;;;5.70;3.50;;;;;;;12.70;59.23;100679.59;7575869;33;39387;-75
2022/10/04 20:52:13;;;;;;;5.70;3.45;;;;;;;12.21;61.10;100694.28;7571690;33;40781;-74
2022/10/04 20:56:32;;;;;;;5.67;3.00;;;;;;;12.25;60.93;100693.75;7575177;32;38204;-74
2022/10/04 21:00:56;;;;;;;9.57;2.80;;;;;;;12.21;60.54;100690.69;7578691;33;35959;-75
2022/10/04 21:05:14;;;;;;;5.55;3.35;;;;;;;12.48;59.53;100690.66;7569857;33;39999;-75
2022/10/04 21:09:32;;;;;;;6.25;3.28;;;;;;;12.07;61.15;100698.50;7554227;33;39083;-75
2022/10/04 21:14:00;;;;;;;7.53;3.17;;;;;;;11.55;63.04;100691.69;7574501;33;38034;-74
2022/10/04 21:18:22;;;;;;;8.07;3.70;;;;;;;12.03;60.93;100686.47;7541489;33;36717;-74
2022/10/04 21:22:38;;;;;;;7.90;4.03;;;;;;;12.09;60.76;100700.97;7585026;32;39068;-75
2022/10/04 21:26:56;;;;;;;7.62;3.42;;;;;;;11.72;62.19;100707.97;7567902;33;39899;-75